createdAt,value
2018-12-23T00:01:07.744Z,11.27
2018-12-23T00:06:03.736Z,9.97
2018-12-23T00:10:59.728Z,9.27
2018-12-23T00:15:55.716Z,7.60
2018-12-23T00:20:51.710Z,11.80
2018-12-23T00:25:47.808Z,8.10
2018-12-23T00:30:43.802Z,9.00
2018-12-23T00:35:39.780Z,11.83
2018-12-23T00:40:35.773Z,9.30
2018-12-23T00:45:31.758Z,9.67
2018-12-23T00:50:27.753Z,6.90
2018-12-23T00:55:23.742Z,5.97
2018-12-23T01:00:19.703Z,7.40
2018-12-23T01:05:15.700Z,6.93
2018-12-23T01:10:11.702Z,7.20
2018-12-23T01:15:07.900Z,6.97
2018-12-23T01:20:06.015Z,3.80
2018-12-23T01:25:02.437Z,5.43
2018-12-23T01:29:58.438Z,6.57
2018-12-23T01:34:54.429Z,7.80
2018-12-23T01:39:50.400Z,7.33
2018-12-23T01:44:46.397Z,8.43
2018-12-23T01:49:42.381Z,5.50
2018-12-23T01:54:38.362Z,7.87
2018-12-23T01:59:34.353Z,10.20
2018-12-23T02:04:30.348Z,8.20
2018-12-23T02:09:26.347Z,9.53
2018-12-23T02:14:22.337Z,8.70
2018-12-23T02:19:18.328Z,8.80
2018-12-23T02:24:14.313Z,10.23
2018-12-23T02:29:10.296Z,12.20
2018-12-23T02:34:06.293Z,9.93
2018-12-23T02:39:04.308Z,10.10
2018-12-23T02:44:00.301Z,6.47
2018-12-23T02:48:56.298Z,7.73
2018-12-23T02:53:52.289Z,11.90
2018-12-23T02:58:48.324Z,9.57
2018-12-23T03:03:44.403Z,11.20
2018-12-23T03:08:40.387Z,9.63
2018-12-23T03:13:36.378Z,6.50
2018-12-23T03:18:32.368Z,8.43
2018-12-23T03:23:28.356Z,8.17
2018-12-23T03:28:25.060Z,8.27
2018-12-23T03:33:21.057Z,8.20
2018-12-23T03:38:17.050Z,9.20
2018-12-23T03:43:13.062Z,8.70
2018-12-23T03:48:09.038Z,8.10
2018-12-23T03:53:05.025Z,6.87
2018-12-23T03:58:06.090Z,8.53
2018-12-23T04:03:08.953Z,8.97
2018-12-23T04:08:04.946Z,10.70
2018-12-23T04:13:00.934Z,9.20
2018-12-23T04:17:57.047Z,8.33
2018-12-23T04:22:53.090Z,8.80
2018-12-23T04:27:51.750Z,9.33
2018-12-23T04:32:47.816Z,11.93
2018-12-23T04:37:50.778Z,12.03
2018-12-23T04:42:46.777Z,10.13
2018-12-23T04:47:42.762Z,12.70
2018-12-23T04:52:38.749Z,11.77
2018-12-23T04:57:36.303Z,11.57
2018-12-23T05:02:32.352Z,10.57
2018-12-23T05:07:28.342Z,12.57
2018-12-23T05:12:24.342Z,12.47
2018-12-23T05:17:20.328Z,14.47
2018-12-23T05:22:16.340Z,14.20
2018-12-23T05:27:12.341Z,16.13
2018-12-23T05:32:08.353Z,16.00
2018-12-23T05:37:04.353Z,13.63
2018-12-23T05:42:00.461Z,12.87
2018-12-23T05:46:56.444Z,16.67
2018-12-23T05:51:52.433Z,15.83
2018-12-23T05:56:48.432Z,18.50
2018-12-23T06:01:44.468Z,20.30
2018-12-23T06:06:40.462Z,19.87
2018-12-23T06:11:36.455Z,21.27
2018-12-23T06:16:32.453Z,25.23
2018-12-23T06:21:28.459Z,22.33
2018-12-23T06:26:24.476Z,24.40
2018-12-23T06:31:20.550Z,25.30
2018-12-23T06:36:18.934Z,24.40
2018-12-23T06:41:14.933Z,27.17
2018-12-23T06:46:10.989Z,23.17
2018-12-23T06:51:07.168Z,19.30
2018-12-23T06:56:03.181Z,26.77
2018-12-23T07:00:59.457Z,22.53
2018-12-23T07:05:55.459Z,25.60
2018-12-23T07:10:51.449Z,27.27
2018-12-23T07:15:47.457Z,25.03
2018-12-23T07:20:43.489Z,26.57
2018-12-23T07:25:39.510Z,25.13
2018-12-23T07:30:35.547Z,21.30
2018-12-23T07:35:31.613Z,16.60
2018-12-23T07:40:27.695Z,24.00
2018-12-23T07:45:23.792Z,16.70
2018-12-23T07:50:19.852Z,23.23
2018-12-23T07:55:15.877Z,22.80
2018-12-23T08:00:11.951Z,28.47
2018-12-23T08:05:07.996Z,27.03
2018-12-23T08:21:14.421Z,24.20
2018-12-23T08:26:10.493Z,23.70
2018-12-23T08:31:06.658Z,24.10
2018-12-23T08:36:02.866Z,25.80
2018-12-23T08:40:58.933Z,23.23
2018-12-23T08:45:54.996Z,21.87
2018-12-23T08:50:51.041Z,20.80
2018-12-23T08:55:47.067Z,21.57
2018-12-23T09:00:43.113Z,22.00
2018-12-23T09:05:39.128Z,25.03
2018-12-23T09:10:35.200Z,20.40
2018-12-23T09:15:31.270Z,23.97
2018-12-23T09:20:27.313Z,21.07
2018-12-23T09:25:44.001Z,26.93
2018-12-23T09:30:40.919Z,12.17
2018-12-23T09:35:58.141Z,17.47
2018-12-23T09:40:55.164Z,25.73
2018-12-23T09:45:51.408Z,27.13
2018-12-23T09:50:47.552Z,25.80
2018-12-23T09:55:43.919Z,19.70
2018-12-23T10:00:40.129Z,13.77
2018-12-23T10:11:21.475Z,26.80
2018-12-23T10:21:33.783Z,25.63
2018-12-23T10:26:33.471Z,25.17
2018-12-23T10:31:31.079Z,24.20
2018-12-23T10:47:09.319Z,20.60
2018-12-23T10:52:28.025Z,23.70
2018-12-23T11:03:11.188Z,19.57
2018-12-23T11:14:06.511Z,16.87
2018-12-23T11:19:07.978Z,19.53
2018-12-23T11:24:25.900Z,18.73
2018-12-23T11:29:28.961Z,21.50
2018-12-23T11:34:48.703Z,20.70
2018-12-23T11:40:09.705Z,21.00
2018-12-23T11:50:11.359Z,20.20
2018-12-23T12:01:06.554Z,20.63
2018-12-23T12:06:25.583Z,22.17
2018-12-23T12:11:23.815Z,24.20
2018-12-23T12:16:21.070Z,21.60
2018-12-23T12:33:12.942Z,22.17
2018-12-23T12:38:52.206Z,22.67
2018-12-23T12:44:09.814Z,20.60
2018-12-23T12:49:48.651Z,20.63
2018-12-23T13:00:52.158Z,20.63
2018-12-23T13:11:56.927Z,17.00
2018-12-23T13:28:18.368Z,21.00
2018-12-23T13:33:15.413Z,20.43
2018-12-23T13:38:12.466Z,19.50
2018-12-23T13:43:48.971Z,19.57
2018-12-23T13:49:07.997Z,20.47
2018-12-23T13:54:45.816Z,23.40
2018-12-23T14:00:21.644Z,18.90
2018-12-23T14:05:59.467Z,17.90
2018-12-23T14:11:37.239Z,17.53
2018-12-23T14:16:33.275Z,17.90
2018-12-23T14:21:30.314Z,16.80
2018-12-23T14:26:26.569Z,15.17
2018-12-23T14:31:22.701Z,16.03
2018-12-23T14:36:18.933Z,16.50
2018-12-23T14:41:14.994Z,12.70
2018-12-23T14:46:11.042Z,13.30
2018-12-23T14:51:29.282Z,13.97
2018-12-23T14:56:25.520Z,14.87
2018-12-23T15:01:21.662Z,13.87
2018-12-23T15:06:17.703Z,14.00
2018-12-23T15:11:13.836Z,13.60
2018-12-23T15:16:09.878Z,12.13
2018-12-23T15:21:05.931Z,14.27
2018-12-23T15:26:01.977Z,13.47
2018-12-23T15:30:58.066Z,12.67
2018-12-23T15:35:54.159Z,12.90
2018-12-23T15:40:51.237Z,12.17
2018-12-23T15:45:47.722Z,11.13
2018-12-23T15:50:45.022Z,13.60
2018-12-23T15:55:43.017Z,12.43
2018-12-23T16:00:59.328Z,12.30
2018-12-23T16:05:56.584Z,11.03
2018-12-23T16:10:53.147Z,10.97
2018-12-23T16:15:51.443Z,11.77
2018-12-23T16:21:07.336Z,11.10
2018-12-23T16:26:03.366Z,9.10
2018-12-23T16:30:59.389Z,11.40
2018-12-23T16:35:55.496Z,10.63
2018-12-23T16:40:51.541Z,11.50
2018-12-23T16:45:47.842Z,9.63
2018-12-23T16:50:44.058Z,9.60
2018-12-23T16:55:40.072Z,8.63
2018-12-23T17:00:36.200Z,8.90
2018-12-23T17:05:33.766Z,9.50
2018-12-23T17:10:29.821Z,9.80
2018-12-23T17:15:25.875Z,9.03
2018-12-23T17:20:25.381Z,9.57
2018-12-23T17:25:21.602Z,7.60
2018-12-23T17:30:17.643Z,9.30
2018-12-23T17:35:33.661Z,9.40
2018-12-23T17:40:30.247Z,8.60
2018-12-23T17:45:27.847Z,9.30
2018-12-23T17:50:24.015Z,10.30
2018-12-23T17:55:20.054Z,9.83
2018-12-23T18:00:16.192Z,9.17
2018-12-23T18:05:12.234Z,12.10
2018-12-23T18:10:08.249Z,10.43
2018-12-23T18:15:45.950Z,11.67
2018-12-23T18:20:41.968Z,12.00
2018-12-23T18:25:37.988Z,11.07
2018-12-23T18:30:34.318Z,13.20
2018-12-23T18:35:30.521Z,12.80
2018-12-23T18:40:33.348Z,12.67
2018-12-23T18:45:24.591Z,9.77
2018-12-23T18:50:20.591Z,9.10
2018-12-23T18:55:16.631Z,12.00
2018-12-23T19:00:12.845Z,9.70
2018-12-23T19:05:08.961Z,9.50
2018-12-23T19:10:46.636Z,8.97
2018-12-23T19:16:24.295Z,9.73
2018-12-23T19:22:01.956Z,10.10
2018-12-23T19:27:39.260Z,9.47
2018-12-23T19:33:15.121Z,8.20
2018-12-23T19:38:52.970Z,9.70
2018-12-23T19:44:28.827Z,9.13
2018-12-23T19:50:06.476Z,7.83
2018-12-23T19:55:44.126Z,10.67
2018-12-23T20:01:21.907Z,13.57
2018-12-23T20:06:57.658Z,10.93
2018-12-23T20:12:33.411Z,11.20
2018-12-23T20:18:11.067Z,10.90
2018-12-23T20:23:46.821Z,10.20
2018-12-23T20:29:22.573Z,9.50
2018-12-23T20:34:58.334Z,9.60
2018-12-23T20:40:36.012Z,7.97
2018-12-23T20:46:11.762Z,3.97
2018-12-23T20:51:49.418Z,3.60
2018-12-23T20:57:25.167Z,3.40
2018-12-23T21:03:00.951Z,3.10
2018-12-23T21:08:38.641Z,2.70
2018-12-23T21:14:16.301Z,2.73
2018-12-23T21:19:38.882Z,3.10
2018-12-23T21:24:56.463Z,3.60
2018-12-23T21:30:34.123Z,4.77
2018-12-23T21:36:12.152Z,2.27
2018-12-23T21:41:49.819Z,1.60
2018-12-23T21:47:25.573Z,2.23
2018-12-23T21:53:03.257Z,3.97
2018-12-23T22:04:36.193Z,3.53
2018-12-23T22:10:13.845Z,3.30
2018-12-23T22:15:09.858Z,2.90
2018-12-23T22:20:05.980Z,3.33
2018-12-23T22:25:02.007Z,3.30
2018-12-23T22:29:58.019Z,3.10
2018-12-23T22:34:54.007Z,2.80
2018-12-23T22:39:50.141Z,3.87
2018-12-23T22:44:46.151Z,1.80
2018-12-23T22:49:42.171Z,2.80
2018-12-23T22:54:38.185Z,2.10
2018-12-23T22:59:34.199Z,1.50
2018-12-23T23:04:30.214Z,1.70
2018-12-23T23:09:26.237Z,2.50
2018-12-23T23:14:22.246Z,1.80
2018-12-23T23:19:18.265Z,1.47
2018-12-23T23:24:14.274Z,1.90
2018-12-23T23:29:10.299Z,1.97
2018-12-23T23:34:06.526Z,2.37
2018-12-23T23:39:44.192Z,2.40
2018-12-23T23:44:40.206Z,3.20
2018-12-23T23:49:36.227Z,2.40
2018-12-23T23:54:32.241Z,2.40
2018-12-23T23:59:28.254Z,2.13
